Time;durP1;ratioP1;P1;durP2;ratioP2;P2;SDS_P1;SDS_P2;PMS_P1;PMS_P2;Temp;Humidity;BMP_temperature;BMP_pressure;BME280_temperature;BME280_humidity;BME280_pressure;Samples;Min_cycle;Max_cycle;Signal;HPM_P1;HPM_P2
2023/05/10 00:01:29;;;;;;;10.87;6.67;;;14.30;99.90;;;;;;5116435;27;20184;-79
2023/05/10 00:03:55;;;;;;;11.90;6.80;;;14.20;99.90;;;;;;5134071;27;20177;-77
2023/05/10 00:06:22;;;;;;;14.70;7.20;;;14.30;99.90;;;;;;5115252;27;20209;-78
2023/05/10 00:08:47;;;;;;;15.33;7.07;;;14.50;99.90;;;;;;5116005;27;20170;-78
2023/05/10 00:11:13;;;;;;;11.53;6.53;;;14.70;99.90;;;;;;5116199;27;20173;-77
2023/05/10 00:13:38;;;;;;;11.20;6.40;;;14.60;99.90;;;;;;5133897;27;20215;-78
2023/05/10 00:16:04;;;;;;;14.67;6.53;;;14.50;99.90;;;;;;5116202;27;20633;-78
2023/05/10 00:18:31;;;;;;;11.87;6.73;;;14.40;99.90;;;;;;5134257;27;20170;-79
2023/05/10 00:20:57;;;;;;;13.00;7.37;;;14.40;99.90;;;;;;5133880;27;20173;-79
2023/05/10 00:23:22;;;;;;;11.47;7.37;;;14.40;99.90;;;;;;5115571;27;20673;-79
2023/05/10 00:25:48;;;;;;;13.67;7.37;;;14.60;99.90;;;;;;5093163;28;20196;-80
2023/05/10 00:28:14;;;;;;;11.27;6.83;;;14.40;99.90;;;;;;5091216;28;20173;-79
2023/05/10 00:30:40;;;;;;;15.30;6.87;;;14.10;99.90;;;;;;5113666;28;20158;-79
2023/05/10 00:33:06;;;;;;;12.53;7.50;;;14.20;99.90;;;;;;5095092;28;20176;-75
2023/05/10 00:35:32;;;;;;;16.07;7.47;;;14.10;99.90;;;;;;5113314;28;20173;-75
2023/05/10 00:37:57;;;;;;;13.53;7.67;;;14.30;99.90;;;;;;5095434;28;20207;-76
2023/05/10 00:40:23;;;;;;;13.57;7.70;;;14.40;99.90;;;;;;5113713;28;20321;-75
2023/05/10 00:42:49;;;;;;;12.40;6.90;;;14.50;99.90;;;;;;5095364;28;20222;-75
2023/05/10 00:45:15;;;;;;;12.53;7.33;;;14.60;99.90;;;;;;5094876;28;20236;-76
2023/05/10 00:47:41;;;;;;;13.03;7.13;;;14.70;99.90;;;;;;5113400;28;20161;-75
2023/05/10 00:50:08;;;;;;;10.90;7.10;;;14.50;99.90;;;;;;5095208;28;20709;-75
2023/05/10 00:52:34;;;;;;;15.57;7.70;;;14.60;99.90;;;;;;5113491;28;20266;-74
2023/05/10 00:55:02;;;;;;;15.77;8.23;;;14.60;99.90;;;;;;5116265;27;20208;-74
2023/05/10 00:57:28;;;;;;;13.37;8.27;;;14.80;99.90;;;;;;5096080;28;20177;-76
2023/05/10 00:59:53;;;;;;;9.67;7.47;;;14.60;99.90;;;;;;5113049;28;20170;-76
2023/05/10 01:02:19;;;;;;;14.97;8.77;;;14.90;99.90;;;;;;5095044;28;20752;-75
2023/05/10 01:04:45;;;;;;;14.70;7.77;;;14.70;99.90;;;;;;5095070;28;20708;-74
2023/05/10 01:07:10;;;;;;;15.87;7.73;;;14.60;99.90;;;;;;5095052;28;20208;-76
2023/05/10 01:09:36;;;;;;;15.37;7.87;;;14.50;99.90;;;;;;5095023;28;20246;-74
2023/05/10 01:12:03;;;;;;;11.10;7.70;;;14.30;99.90;;;;;;5113089;28;20161;-75
2023/05/10 01:14:29;;;;;;;12.57;8.37;;;14.10;99.90;;;;;;5095678;28;20182;-74
2023/05/10 01:16:55;;;;;;;14.03;8.57;;;14.40;99.90;;;;;;5094921;28;20558;-74
2023/05/10 01:19:26;;;;;;;12.73;8.13;;;14.50;99.90;;;;;;5112946;28;20173;-75
2023/05/10 01:22:13;;;;;;;17.83;10.03;;;14.60;99.90;;;;;;5094833;28;20173;-74
2023/05/10 01:24:50;;;;;;;15.47;9.17;;;14.60;99.90;;;;;;5094721;28;20227;-75
2023/05/10 01:27:54;;;;;;;16.57;9.43;;;14.30;99.90;;;;;;5112769;28;20268;-75
2023/05/10 01:30:56;;;;;;;14.53;8.87;;;14.40;99.90;;;;;;5013510;28;20187;-76
2023/05/10 01:33:30;;;;;;;17.40;10.20;;;14.60;99.90;;;;;;5117076;28;20539;-76
2023/05/10 01:36:06;;;;;;;15.60;9.70;;;14.60;99.90;;;;;;5114820;28;20285;-75
2023/05/10 01:38:53;;;;;;;13.67;8.70;;;14.50;99.90;;;;;;5113423;28;20271;-75
2023/05/10 01:41:28;;;;;;;15.80;9.97;;;14.30;99.90;;;;;;5115086;28;20191;-75
2023/05/10 01:44:10;;;;;;;14.33;9.83;;;14.20;99.90;;;;;;5106395;28;20270;-75
2023/05/10 01:46:39;;;;;;;15.70;9.53;;;14.40;99.90;;;;;;5094464;28;20233;-75
2023/05/10 01:49:18;;;;;;;15.17;9.87;;;14.40;99.90;;;;;;5112999;28;20653;-74
2023/05/10 01:51:51;;;;;;;16.30;9.53;;;14.40;99.90;;;;;;5112683;28;20298;-74
2023/05/10 01:54:20;;;;;;;15.80;9.70;;;14.40;99.90;;;;;;5112730;28;20234;-75
2023/05/10 01:56:50;;;;;;;15.53;10.10;;;14.60;99.90;;;;;;5094117;28;20781;-74
2023/05/10 01:59:19;;;;;;;14.47;9.67;;;14.40;99.90;;;;;;5094450;28;20254;-74
2023/05/10 02:01:46;;;;;;;15.80;9.83;;;14.30;99.90;;;;;;5093995;28;20176;-74
2023/05/10 02:04:17;;;;;;;17.57;10.87;;;14.40;99.90;;;;;;5112695;28;20179;-74
2023/05/10 02:06:44;;;;;;;14.60;10.20;;;14.60;99.90;;;;;;5094195;28;20204;-75
2023/05/10 02:09:13;;;;;;;17.47;9.97;;;14.50;99.90;;;;;;5094171;28;20200;-74
2023/05/10 02:11:41;;;;;;;15.83;9.80;;;14.40;99.90;;;;;;5094280;28;20520;-75
2023/05/10 02:14:11;;;;;;;14.63;9.47;;;14.40;99.90;;;;;;5112301;28;20284;-76
2023/05/10 02:16:38;;;;;;;15.07;10.20;;;14.60;99.90;;;;;;5094913;28;20177;-78
2023/05/10 02:19:06;;;;;;;17.63;9.77;;;14.60;99.90;;;;;;5094328;28;20172;-78
2023/05/10 02:21:33;;;;;;;17.93;10.57;;;14.50;99.90;;;;;;5112107;28;20181;-78
2023/05/10 02:24:02;;;;;;;17.00;9.93;;;14.40;99.90;;;;;;5112348;28;20266;-78
2023/05/10 02:26:29;;;;;;;17.93;10.90;;;14.40;99.90;;;;;;5093800;28;20209;-78
2023/05/10 02:28:58;;;;;;;18.17;10.33;;;14.40;99.90;;;;;;5095296;28;20720;-78
2023/05/10 02:31:24;;;;;;;16.60;10.47;;;14.40;99.90;;;;;;5097915;28;20217;-78
2023/05/10 02:33:51;;;;;;;14.97;10.30;;;14.40;99.90;;;;;;5115596;28;20198;-77
2023/05/10 02:36:18;;;;;;;17.03;10.40;;;14.50;99.90;;;;;;5116428;28;20172;-77
2023/05/10 02:38:45;;;;;;;18.00;10.40;;;14.50;99.90;;;;;;5116898;28;20540;-78
2023/05/10 02:41:12;;;;;;;16.67;10.77;;;14.40;99.90;;;;;;5097754;28;20713;-78
2023/05/10 02:43:40;;;;;;;18.43;10.17;;;14.40;99.90;;;;;;5115298;28;20307;-78
2023/05/10 02:46:06;;;;;;;14.67;10.00;;;14.40;99.90;;;;;;5097438;28;20547;-77
2023/05/10 02:48:32;;;;;;;16.63;9.80;;;14.40;99.90;;;;;;5115466;28;20180;-76
2023/05/10 02:51:05;;;;;;;13.90;8.93;;;14.40;99.90;;;;;;5115750;28;20253;-79
2023/05/10 02:53:32;;;;;;;18.97;9.63;;;14.30;99.90;;;;;;5115418;27;20184;-79
2023/05/10 02:56:04;;;;;;;17.83;10.27;;;14.30;99.90;;;;;;5115482;28;20188;-79
2023/05/10 02:58:29;;;;;;;15.90;9.47;;;14.30;99.90;;;;;;5115285;28;20680;-79
2023/05/10 03:00:55;;;;;;;15.10;8.97;;;14.40;99.90;;;;;;5132465;27;20251;-79
2023/05/10 03:03:22;;;;;;;15.83;9.57;;;14.50;99.90;;;;;;5116993;27;20184;-78
2023/05/10 03:05:48;;;;;;;12.67;9.03;;;14.30;99.90;;;;;;5117553;27;20721;-79
2023/05/10 03:08:14;;;;;;;14.57;8.30;;;14.30;99.90;;;;;;5135978;27;20578;-79
2023/05/10 03:11:15;;;;;;;16.60;8.83;;;14.20;99.90;;;;;;5103646;28;20175;-78
2023/05/10 03:14:08;;;;;;;14.50;9.47;;;14.30;99.90;;;;;;5115068;28;20204;-78
2023/05/10 03:16:52;;;;;;;18.43;9.07;;;14.50;99.90;;;;;;5114718;27;20193;-78
2023/05/10 03:19:32;;;;;;;15.37;9.80;;;14.30;99.90;;;;;;5096984;28;20184;-79
2023/05/10 03:22:03;;;;;;;13.47;8.90;;;14.20;99.90;;;;;;5097393;28;20179;-79
2023/05/10 03:24:30;;;;;;;18.00;10.33;;;14.10;99.90;;;;;;5133654;27;20183;-79
2023/05/10 03:27:02;;;;;;;19.00;9.90;;;14.10;99.90;;;;;;5120973;27;20203;-79
2023/05/10 03:29:29;;;;;;;16.23;10.43;;;14.00;99.90;;;;;;5116980;27;20640;-77
2023/05/10 03:31:55;;;;;;;18.00;10.43;;;14.20;99.90;;;;;;5135627;27;20156;-79
2023/05/10 03:34:24;;;;;;;14.20;10.07;;;14.20;99.90;;;;;;5136028;27;20521;-79
2023/05/10 03:36:50;;;;;;;15.37;9.80;;;14.20;99.90;;;;;;5116653;27;20179;-78
2023/05/10 03:39:15;;;;;;;17.90;10.93;;;14.10;99.90;;;;;;5135043;27;20260;-78
2023/05/10 03:41:41;;;;;;;17.47;11.07;;;14.00;99.90;;;;;;5133982;27;20155;-78
2023/05/10 03:44:06;;;;;;;15.90;10.57;;;13.90;99.90;;;;;;5116643;27;20187;-79
2023/05/10 03:46:32;;;;;;;17.43;10.90;;;13.90;99.90;;;;;;5134341;27;20204;-79
2023/05/10 03:48:58;;;;;;;18.03;12.03;;;13.80;99.90;;;;;;5134202;27;20184;-79
2023/05/10 03:51:27;;;;;;;19.60;11.60;;;13.90;99.90;;;;;;5116458;27;20174;-78
2023/05/10 03:53:55;;;;;;;19.67;12.23;;;14.10;99.90;;;;;;5116188;27;20270;-78
2023/05/10 03:56:22;;;;;;;23.20;13.37;;;14.00;99.90;;;;;;5134549;27;20280;-79
2023/05/10 03:58:47;;;;;;;21.90;13.13;;;14.00;99.90;;;;;;5134629;27;20637;-76
2023/05/10 04:01:13;;;;;;;26.40;14.30;;;14.10;99.90;;;;;;5134791;27;20203;-76
2023/05/10 04:03:38;;;;;;;22.83;13.67;;;14.10;99.90;;;;;;5116200;27;20194;-76
2023/05/10 04:06:05;;;;;;;20.90;13.07;;;14.20;99.90;;;;;;5114889;27;20598;-76
2023/05/10 04:08:31;;;;;;;21.13;13.30;;;14.10;99.90;;;;;;5133878;27;20649;-76
2023/05/10 04:11:10;;;;;;;24.47;13.93;;;14.20;99.90;;;;;;5134621;27;20183;-76
2023/05/10 04:13:36;;;;;;;22.53;14.43;;;14.30;99.90;;;;;;5134154;27;20183;-76
2023/05/10 04:16:02;;;;;;;20.57;12.97;;;14.40;99.90;;;;;;5115611;27;20189;-76
2023/05/10 04:18:29;;;;;;;23.63;14.50;;;14.40;99.90;;;;;;5134358;27;20172;-75
2023/05/10 04:20:55;;;;;;;20.60;14.07;;;14.30;99.90;;;;;;5115858;27;20588;-75
2023/05/10 04:23:20;;;;;;;24.73;14.23;;;14.30;99.90;;;;;;5115996;27;20184;-75
2023/05/10 04:25:46;;;;;;;23.40;14.73;;;14.40;99.90;;;;;;5114855;27;20203;-75
2023/05/10 04:28:12;;;;;;;24.87;14.87;;;14.30;99.90;;;;;;5134542;27;20549;-74
2023/05/10 04:30:37;;;;;;;26.67;16.03;;;14.30;99.90;;;;;;5115965;27;20182;-76
2023/05/10 04:33:03;;;;;;;24.37;15.27;;;14.40;99.90;;;;;;5115692;27;20164;-75
2023/05/10 04:35:29;;;;;;;26.77;15.00;;;14.20;99.90;;;;;;5127304;27;20178;-74
2023/05/10 04:37:55;;;;;;;26.10;15.50;;;14.10;99.90;;;;;;5095082;28;20191;-75
2023/05/10 04:40:20;;;;;;;22.53;15.63;;;14.10;99.90;;;;;;5095144;28;20251;-76
2023/05/10 04:42:47;;;;;;;29.27;15.97;;;14.00;99.90;;;;;;5095284;28;20177;-74
2023/05/10 04:45:14;;;;;;;25.60;15.10;;;14.00;99.90;;;;;;5114011;28;20264;-77
2023/05/10 04:47:40;;;;;;;26.00;15.63;;;14.10;99.90;;;;;;5113431;28;20201;-77
2023/05/10 04:50:07;;;;;;;24.23;15.33;;;14.20;99.90;;;;;;5113358;28;20191;-75
2023/05/10 04:52:33;;;;;;;24.20;16.17;;;14.20;99.90;;;;;;5094466;28;20251;-76
2023/05/10 04:54:58;;;;;;;23.57;15.80;;;14.20;99.90;;;;;;5112944;28;20700;-75
2023/05/10 04:57:24;;;;;;;26.47;15.20;;;14.20;99.90;;;;;;5113476;28;20193;-76
2023/05/10 04:59:49;;;;;;;25.37;15.50;;;14.20;99.90;;;;;;5112786;28;20185;-76
2023/05/10 05:02:15;;;;;;;26.80;16.63;;;14.10;99.90;;;;;;5113111;28;20189;-76
2023/05/10 05:04:41;;;;;;;21.20;15.03;;;14.20;99.90;;;;;;5094910;28;20240;-76
2023/05/10 05:07:06;;;;;;;25.70;16.13;;;14.30;99.90;;;;;;5094883;28;20198;-76
2023/05/10 05:09:32;;;;;;;25.10;15.53;;;14.40;99.90;;;;;;5094498;28;20181;-76
2023/05/10 05:11:58;;;;;;;21.33;15.73;;;14.40;99.90;;;;;;5094527;28;20172;-77
2023/05/10 05:14:25;;;;;;;26.37;16.07;;;14.50;99.90;;;;;;5112953;27;20556;-77
2023/05/10 05:16:53;;;;;;;26.20;15.93;;;14.60;99.90;;;;;;5094718;28;20548;-77
2023/05/10 05:19:19;;;;;;;23.97;16.07;;;14.50;99.90;;;;;;5116243;28;20280;-78
2023/05/10 05:21:45;;;;;;;23.60;15.57;;;14.40;99.90;;;;;;5113797;28;20199;-77
2023/05/10 05:24:12;;;;;;;21.93;14.97;;;14.40;99.90;;;;;;5130880;28;20241;-76
2023/05/10 05:26:38;;;;;;;22.43;15.23;;;14.30;99.90;;;;;;5097765;28;20210;-76
2023/05/10 05:29:04;;;;;;;26.10;15.57;;;14.40;99.90;;;;;;5094878;28;20170;-76
2023/05/10 05:31:30;;;;;;;26.53;15.67;;;14.50;99.90;;;;;;5094488;28;20184;-77
2023/05/10 05:33:55;;;;;;;23.87;15.63;;;14.70;99.90;;;;;;5094671;28;20178;-77
2023/05/10 05:36:22;;;;;;;25.73;15.90;;;14.90;99.90;;;;;;5112759;28;20165;-77
2023/05/10 05:38:47;;;;;;;22.77;14.60;;;15.10;99.90;;;;;;5094533;28;20272;-77
2023/05/10 05:41:13;;;;;;;22.73;15.53;;;15.10;99.90;;;;;;5094433;28;20593;-76
2023/05/10 05:43:39;;;;;;;22.20;15.17;;;15.00;99.90;;;;;;5094429;28;20823;-76
2023/05/10 05:46:05;;;;;;;25.53;15.40;;;15.10;99.90;;;;;;5100638;28;20205;-76
2023/05/10 05:48:31;;;;;;;24.83;16.07;;;15.10;99.90;;;;;;5096226;28;20188;-76
2023/05/10 05:50:58;;;;;;;18.97;13.57;;;15.00;99.90;;;;;;5105617;28;20273;-75
2023/05/10 05:53:23;;;;;;;24.37;14.73;;;15.00;99.90;;;;;;5094384;28;20216;-76
2023/05/10 05:55:57;;;;;;;22.03;14.13;;;15.00;99.90;;;;;;5106435;28;20202;-75
2023/05/10 05:58:25;;;;;;;20.03;12.27;;;15.20;99.90;;;;;;5133041;28;20215;-75
2023/05/10 06:00:52;;;;;;;17.93;12.00;;;15.50;99.90;;;;;;5133184;28;20536;-76
2023/05/10 06:03:20;;;;;;;23.10;12.00;;;15.50;99.90;;;;;;5115842;27;20176;-75
2023/05/10 06:05:48;;;;;;;18.57;11.13;;;15.50;99.90;;;;;;5118977;27;20211;-76
2023/05/10 06:08:13;;;;;;;18.07;12.10;;;15.50;99.90;;;;;;5101400;28;20561;-76
2023/05/10 06:10:39;;;;;;;18.53;12.53;;;15.50;99.90;;;;;;5098134;28;20179;-75
2023/05/10 06:13:05;;;;;;;17.83;11.97;;;15.50;99.90;;;;;;5097796;28;20221;-76
2023/05/10 06:15:32;;;;;;;17.17;12.00;;;15.50;99.90;;;;;;5109894;27;20664;-75
2023/05/10 06:17:57;;;;;;;15.33;11.23;;;15.60;99.90;;;;;;5117588;27;20650;-76
2023/05/10 06:20:23;;;;;;;16.83;12.20;;;15.60;99.90;;;;;;5117066;27;20180;-75
2023/05/10 06:22:49;;;;;;;17.93;12.33;;;15.50;99.90;;;;;;5118198;27;20260;-75
2023/05/10 06:25:17;;;;;;;15.03;10.63;;;15.40;99.90;;;;;;5118214;27;20173;-75
2023/05/10 06:27:43;;;;;;;16.40;10.73;;;15.30;99.90;;;;;;5101434;28;20206;-75
2023/05/10 06:30:10;;;;;;;16.47;12.10;;;15.30;99.90;;;;;;5097948;28;20198;-75
2023/05/10 06:32:35;;;;;;;22.13;12.90;;;15.30;99.90;;;;;;5097590;28;20201;-75
2023/05/10 06:35:01;;;;;;;21.43;13.10;;;15.30;99.90;;;;;;5097269;28;20224;-75
2023/05/10 06:37:28;;;;;;;16.97;12.13;;;15.40;99.90;;;;;;5096414;28;20180;-76
2023/05/10 06:39:55;;;;;;;23.93;14.03;;;15.70;99.90;;;;;;5097234;28;20169;-76
2023/05/10 06:42:20;;;;;;;23.40;13.70;;;15.60;99.90;;;;;;5115942;28;20166;-76
2023/05/10 06:44:46;;;;;;;22.80;13.10;;;15.30;99.90;;;;;;5097931;28;20590;-76
2023/05/10 06:47:12;;;;;;;17.10;9.90;;;15.10;99.90;;;;;;5097725;28;20242;-76
2023/05/10 06:49:37;;;;;;;13.57;8.43;;;15.00;99.90;;;;;;5115607;28;20166;-76
2023/05/10 06:52:03;;;;;;;11.77;7.90;;;14.80;99.90;;;;;;5097266;28;20169;-76
2023/05/10 06:54:29;;;;;;;16.27;8.60;;;14.60;99.90;;;;;;5115572;28;20642;-77
2023/05/10 06:56:55;;;;;;;12.10;7.20;;;14.60;99.90;;;;;;5097178;28;20170;-76
2023/05/10 06:59:21;;;;;;;18.27;8.47;;;14.90;99.90;;;;;;5115316;28;20181;-77
2023/05/10 07:01:47;;;;;;;15.10;7.73;;;15.10;99.90;;;;;;5097051;28;20224;-76
2023/05/10 07:04:14;;;;;;;12.33;7.93;;;15.20;99.90;;;;;;5096632;28;20184;-76
2023/05/10 07:06:39;;;;;;;16.70;8.67;;;14.90;99.90;;;;;;5096955;28;20419;-75
2023/05/10 07:09:05;;;;;;;16.20;9.43;;;14.90;99.90;;;;;;5115354;28;20188;-76
2023/05/10 07:11:32;;;;;;;19.33;11.00;;;14.80;99.90;;;;;;5116051;28;20170;-77
2023/05/10 07:13:58;;;;;;;16.10;9.50;;;14.70;99.90;;;;;;5097402;28;20187;-76
2023/05/10 07:16:23;;;;;;;21.83;10.53;;;14.70;99.90;;;;;;5115650;28;20731;-76
2023/05/10 07:18:50;;;;;;;18.33;9.03;;;14.70;99.90;;;;;;5097122;28;20397;-76
2023/05/10 07:21:16;;;;;;;17.90;9.73;;;14.70;99.90;;;;;;5097494;28;20187;-76
2023/05/10 07:23:42;;;;;;;17.40;10.57;;;14.70;99.90;;;;;;5097298;28;20273;-76
2023/05/10 07:26:09;;;;;;;23.17;10.80;;;14.70;99.90;;;;;;5115794;28;20220;-75
2023/05/10 07:28:37;;;;;;;20.43;10.57;;;14.60;99.90;;;;;;5096914;28;20557;-76
2023/05/10 07:31:03;;;;;;;19.57;10.47;;;14.70;99.90;;;;;;5096771;28;20184;-76
2023/05/10 07:33:28;;;;;;;18.77;10.30;;;14.40;99.90;;;;;;5114744;28;20165;-76
2023/05/10 07:35:54;;;;;;;17.73;10.20;;;14.20;99.90;;;;;;5096538;28;20233;-77
2023/05/10 07:38:20;;;;;;;23.43;10.70;;;14.30;99.90;;;;;;5096462;28;20177;-76
2023/05/10 07:40:45;;;;;;;21.77;11.03;;;14.40;99.90;;;;;;5096834;28;20195;-76
2023/05/10 07:43:11;;;;;;;20.47;10.70;;;14.60;99.90;;;;;;5114802;28;20630;-76
2023/05/10 07:45:38;;;;;;;16.40;8.57;;;14.60;99.90;;;;;;5096530;28;20605;-76
2023/05/10 07:48:05;;;;;;;16.27;8.97;;;14.50;99.90;;;;;;5096484;28;20177;-76
2023/05/10 07:50:32;;;;;;;19.27;8.40;;;14.40;99.90;;;;;;5096586;28;20640;-76
2023/05/10 07:52:57;;;;;;;20.00;9.53;;;14.60;99.90;;;;;;5096246;28;20218;-77
2023/05/10 07:55:23;;;;;;;14.80;8.40;;;14.60;99.90;;;;;;5096062;28;20260;-76
2023/05/10 07:57:49;;;;;;;16.03;7.93;;;14.50;99.90;;;;;;5095990;28;20700;-75
2023/05/10 08:00:19;;;;;;;16.07;8.77;;;14.40;99.90;;;;;;5095677;28;20288;-76
2023/05/10 08:02:47;;;;;;;17.47;8.37;;;14.10;99.90;;;;;;5095812;28;20252;-75
2023/05/10 08:05:13;;;;;;;18.53;8.10;;;14.00;99.90;;;;;;5114055;28;20201;-76
2023/05/10 08:07:39;;;;;;;15.70;8.80;;;13.90;99.90;;;;;;5114172;28;20198;-76
2023/05/10 08:10:05;;;;;;;18.93;9.20;;;14.10;99.90;;;;;;5096186;28;20169;-76
2023/05/10 08:12:31;;;;;;;14.43;8.57;;;14.20;99.90;;;;;;5114691;28;20189;-75
2023/05/10 08:14:57;;;;;;;13.63;9.63;;;14.30;99.90;;;;;;5095850;28;20179;-76
2023/05/10 08:17:22;;;;;;;13.30;8.53;;;14.10;99.90;;;;;;5096142;28;20215;-76
2023/05/10 08:19:48;;;;;;;14.10;8.27;;;14.30;99.90;;;;;;5095684;28;20173;-76
2023/05/10 08:22:15;;;;;;;14.23;8.70;;;14.30;99.90;;;;;;5095565;28;20208;-76
2023/05/10 08:24:41;;;;;;;13.90;8.50;;;14.60;99.90;;;;;;5114004;28;20626;-76
2023/05/10 08:27:08;;;;;;;14.13;7.80;;;14.70;99.90;;;;;;5094913;28;20229;-76
2023/05/10 08:29:34;;;;;;;14.70;7.97;;;14.80;99.90;;;;;;5095785;28;20627;-76
2023/05/10 08:32:00;;;;;;;13.77;8.37;;;15.00;99.90;;;;;;5113892;28;20169;-76
2023/05/10 08:34:27;;;;;;;13.33;7.63;;;15.20;99.90;;;;;;5113755;28;20260;-77
2023/05/10 08:36:54;;;;;;;14.67;7.23;;;15.20;99.90;;;;;;5095763;28;20594;-76
2023/05/10 08:39:20;;;;;;;9.50;6.07;;;15.20;99.90;;;;;;5095475;28;20597;-77
2023/05/10 08:41:47;;;;;;;10.70;6.50;;;15.20;99.90;;;;;;5113786;28;20182;-77
2023/05/10 08:44:14;;;;;;;8.43;5.33;;;15.50;99.90;;;;;;5095172;28;20629;-76
2023/05/10 08:46:46;;;;;;;10.57;5.90;;;15.70;99.90;;;;;;5095534;28;20284;-76
2023/05/10 08:49:20;;;;;;;9.97;6.60;;;15.80;99.90;;;;;;5114791;28;20175;-76
2023/05/10 08:51:54;;;;;;;10.23;6.30;;;16.00;99.90;;;;;;5095162;28;20180;-76
2023/05/10 08:54:21;;;;;;;9.70;5.50;;;16.10;99.90;;;;;;5094900;28;20178;-76
2023/05/10 08:56:47;;;;;;;10.63;6.50;;;16.40;99.90;;;;;;5113063;28;20185;-76
2023/05/10 08:59:15;;;;;;;10.80;7.30;;;16.50;99.90;;;;;;5094708;28;20541;-77
2023/05/10 09:01:42;;;;;;;10.17;6.47;;;16.50;99.90;;;;;;5112856;28;20185;-76
2023/05/10 09:04:08;;;;;;;8.73;5.90;;;16.30;99.90;;;;;;5094880;28;20764;-76
2023/05/10 09:06:35;;;;;;;8.87;6.33;;;16.20;99.90;;;;;;5094683;28;20304;-77
2023/05/10 09:09:03;;;;;;;8.70;5.80;;;16.10;99.90;;;;;;5094967;28;20222;-77
2023/05/10 09:11:29;;;;;;;12.40;6.40;;;15.80;99.90;;;;;;5095704;28;20226;-77
2023/05/10 09:13:56;;;;;;;8.53;5.40;;;15.90;99.90;;;;;;5096064;28;20193;-76
2023/05/10 09:16:23;;;;;;;8.40;5.63;;;15.70;99.90;;;;;;5095655;28;20190;-77
2023/05/10 09:18:51;;;;;;;11.70;7.00;;;15.40;99.90;;;;;;5095670;28;20663;-77
2023/05/10 09:21:19;;;;;;;9.60;6.63;;;15.40;99.90;;;;;;5096023;28;20226;-77
2023/05/10 09:23:46;;;;;;;8.67;6.23;;;15.30;99.90;;;;;;5095785;28;20230;-77
2023/05/10 09:26:12;;;;;;;11.97;6.87;;;15.20;99.90;;;;;;5113575;28;20225;-77
2023/05/10 09:28:56;;;;;;;10.50;6.00;;;15.10;99.90;;;;;;5095472;28;20176;-76
2023/05/10 09:31:24;;;;;;;12.40;6.77;;;15.10;99.90;;;;;;5114026;28;20179;-77
2023/05/10 09:33:51;;;;;;;9.00;5.57;;;15.10;99.90;;;;;;5095115;28;20182;-76
2023/05/10 09:36:17;;;;;;;8.53;5.93;;;15.00;99.90;;;;;;5095382;28;20284;-77
2023/05/10 09:38:47;;;;;;;7.53;5.47;;;15.00;99.90;;;;;;5098076;28;20525;-77
2023/05/10 09:41:21;;;;;;;10.93;6.50;;;15.00;99.90;;;;;;5098875;28;20188;-77
2023/05/10 09:43:47;;;;;;;12.83;6.53;;;14.90;99.90;;;;;;5098892;28;20176;-76
2023/05/10 09:46:13;;;;;;;7.10;5.77;;;14.80;99.90;;;;;;5098506;28;20212;-76
2023/05/10 09:48:44;;;;;;;8.00;5.40;;;14.60;99.90;;;;;;5098894;28;20268;-76
2023/05/10 09:51:10;;;;;;;7.93;4.83;;;14.60;99.90;;;;;;5098444;28;20215;-77
2023/05/10 09:53:36;;;;;;;6.10;4.37;;;14.70;99.90;;;;;;5116547;28;20169;-77
2023/05/10 09:56:02;;;;;;;7.73;4.53;;;14.40;99.90;;;;;;5098312;28;20178;-77
2023/05/10 09:58:27;;;;;;;8.97;5.23;;;14.40;99.90;;;;;;5098524;28;20186;-77
2023/05/10 10:00:54;;;;;;;6.67;5.10;;;14.60;99.90;;;;;;5116983;28;20176;-78
2023/05/10 10:03:21;;;;;;;6.87;4.87;;;14.50;99.90;;;;;;5098492;28;20181;-77
2023/05/10 10:05:48;;;;;;;9.77;4.97;;;14.60;99.90;;;;;;5117405;28;20173;-77
2023/05/10 10:08:15;;;;;;;7.37;4.83;;;14.70;99.90;;;;;;5098270;28;20166;-77
2023/05/10 10:10:41;;;;;;;8.20;5.00;;;14.90;99.90;;;;;;5116979;28;20201;-77
2023/05/10 10:13:07;;;;;;;6.20;4.93;;;14.90;99.90;;;;;;5116247;28;20193;-77
2023/05/10 10:15:34;;;;;;;8.77;5.63;;;14.70;99.90;;;;;;5098299;28;20182;-77
2023/05/10 10:18:00;;;;;;;7.07;5.33;;;14.70;99.90;;;;;;5099185;28;20204;-76
2023/05/10 10:20:27;;;;;;;6.17;5.43;;;14.80;99.90;;;;;;5099253;28;20178;-77
2023/05/10 10:22:53;;;;;;;7.50;5.77;;;14.80;99.90;;;;;;5098860;28;20198;-77
2023/05/10 10:25:24;;;;;;;7.37;5.10;;;14.70;99.90;;;;;;5117023;28;20541;-77
2023/05/10 10:27:54;;;;;;;6.93;4.90;;;14.90;99.90;;;;;;5099219;28;20199;-77
2023/05/10 10:30:42;;;;;;;7.67;5.37;;;14.50;99.90;;;;;;5099197;28;20153;-77
2023/05/10 10:33:27;;;;;;;9.57;5.40;;;14.30;99.90;;;;;;5099090;28;20255;-77
2023/05/10 10:35:55;;;;;;;7.67;5.23;;;14.50;99.90;;;;;;5098851;28;20221;-77
2023/05/10 10:38:21;;;;;;;8.57;5.00;;;14.60;99.90;;;;;;5099704;28;20261;-76
2023/05/10 10:40:47;;;;;;;8.37;4.93;;;14.70;99.90;;;;;;5117628;28;20157;-77
2023/05/10 10:43:27;;;;;;;6.37;5.03;;;14.90;99.90;;;;;;5115846;28;20174;-78
2023/05/10 10:46:13;;;;;;;7.77;5.57;;;14.80;99.90;;;;;;5116374;28;20666;-76
2023/05/10 10:48:51;;;;;;;8.33;5.17;;;14.50;99.90;;;;;;5098080;28;20235;-77
2023/05/10 10:51:17;;;;;;;7.03;4.90;;;14.70;99.90;;;;;;5115876;28;20159;-77
2023/05/10 10:53:43;;;;;;;7.23;4.77;;;14.50;99.90;;;;;;5116280;28;20237;-77
2023/05/10 10:56:13;;;;;;;6.83;4.87;;;14.50;99.90;;;;;;5097777;28;20172;-77
2023/05/10 10:58:40;;;;;;;6.93;4.83;;;14.80;99.90;;;;;;5115449;28;20783;-77
2023/05/10 11:01:16;;;;;;;8.57;5.33;;;14.90;99.90;;;;;;5097395;28;20175;-77
2023/05/10 11:03:58;;;;;;;9.30;5.60;;;14.80;99.90;;;;;;5097547;28;20207;-77
2023/05/10 11:06:33;;;;;;;8.00;5.47;;;14.70;99.90;;;;;;5115524;28;20555;-77
2023/05/10 11:09:06;;;;;;;8.30;5.30;;;14.90;99.90;;;;;;5115696;28;20174;-76
2023/05/10 11:11:33;;;;;;;8.57;5.33;;;15.00;99.90;;;;;;5097460;28;20174;-77
2023/05/10 11:14:05;;;;;;;9.00;6.17;;;15.10;99.90;;;;;;5096809;28;20299;-77
2023/05/10 11:16:42;;;;;;;6.23;5.23;;;15.30;99.90;;;;;;5097103;28;20235;-77
2023/05/10 11:19:10;;;;;;;9.27;6.37;;;15.40;99.90;;;;;;5097023;28;20216;-76
2023/05/10 11:22:23;;;;;;;9.30;6.43;;;15.40;99.90;;;;;;5115185;28;20185;-76
2023/05/10 11:24:59;;;;;;;9.17;6.47;;;15.10;99.90;;;;;;5092106;28;20198;-77
2023/05/10 11:27:25;;;;;;;10.73;7.20;;;15.20;99.90;;;;;;5097218;28;20223;-77
2023/05/10 11:29:51;;;;;;;7.93;6.37;;;15.60;99.90;;;;;;5097186;28;20181;-77
2023/05/10 11:32:19;;;;;;;9.03;5.70;;;15.90;99.90;;;;;;5115464;28;20541;-77
2023/05/10 11:34:48;;;;;;;7.17;5.67;;;15.80;99.90;;;;;;5115316;28;20215;-77
2023/05/10 11:37:13;;;;;;;7.03;5.57;;;16.00;99.90;;;;;;5115376;28;20664;-77
2023/05/10 11:39:45;;;;;;;9.60;5.60;;;16.20;99.90;;;;;;5114723;28;20166;-77
2023/05/10 11:42:12;;;;;;;8.20;5.57;;;16.40;99.90;;;;;;5114374;28;20181;-77
2023/05/10 11:44:38;;;;;;;9.63;6.47;;;16.60;99.90;;;;;;5114218;28;20184;-77
2023/05/10 11:47:05;;;;;;;8.37;5.30;;;16.50;99.90;;;;;;5114624;28;20201;-77
2023/05/10 11:49:30;;;;;;;9.50;5.60;;;16.20;99.90;;;;;;5095952;28;20193;-77
2023/05/10 11:52:07;;;;;;;7.53;5.43;;;16.40;99.90;;;;;;5096404;28;20174;-77
2023/05/10 11:54:34;;;;;;;7.07;5.40;;;16.90;99.90;;;;;;5095600;28;20205;-77
2023/05/10 11:57:00;;;;;;;6.80;5.10;;;17.00;99.90;;;;;;5096854;28;20566;-77
2023/05/10 11:59:29;;;;;;;7.60;4.77;;;17.00;99.90;;;;;;5096775;28;20185;-77
2023/05/10 12:01:56;;;;;;;6.33;4.83;;;17.00;99.90;;;;;;5095602;28;20340;-77
2023/05/10 12:04:22;;;;;;;6.53;4.97;;;17.20;99.90;;;;;;5095913;28;20260;-77
2023/05/10 12:06:48;;;;;;;6.37;4.80;;;17.20;99.90;;;;;;5096001;28;20251;-77
2023/05/10 12:09:14;;;;;;;6.03;5.07;;;17.20;99.90;;;;;;5114732;28;20166;-76
2023/05/10 12:11:40;;;;;;;7.60;5.07;;;16.90;99.90;;;;;;5096020;28;20171;-77
2023/05/10 12:14:07;;;;;;;7.00;5.30;;;17.00;99.90;;;;;;5095573;28;20654;-76
2023/05/10 12:16:33;;;;;;;6.03;5.07;;;17.20;99.90;;;;;;5114261;28;20703;-76
2023/05/10 12:19:00;;;;;;;9.27;5.73;;;17.30;99.90;;;;;;5114155;28;20188;-77
2023/05/10 12:21:28;;;;;;;5.53;4.93;;;17.40;99.90;;;;;;5095634;28;20190;-77
2023/05/10 12:24:03;;;;;;;5.63;5.00;;;17.40;99.90;;;;;;5090231;28;20642;-78
2023/05/10 12:26:29;;;;;;;7.47;5.77;;;17.40;99.90;;;;;;5088885;28;20155;-76
2023/05/10 12:29:11;;;;;;;6.57;5.63;;;17.40;99.90;;;;;;5090326;28;20646;-80
2023/05/10 12:31:53;;;;;;;8.07;6.17;;;17.40;99.90;;;;;;5090340;28;20174;-78
2023/05/10 12:34:33;;;;;;;8.97;6.33;;;17.50;99.90;;;;;;5090087;28;20185;-80
2023/05/10 12:37:00;;;;;;;9.47;6.67;;;17.70;99.90;;;;;;5088820;28;20155;-78
2023/05/10 12:39:26;;;;;;;11.00;6.40;;;17.90;99.90;;;;;;5090624;28;20584;-79
2023/05/10 12:41:52;;;;;;;6.93;5.40;;;17.90;99.90;;;;;;5089266;28;20164;-78